createdAt,value
2023-04-23T00:00:14.449Z,14.00
2023-04-23T00:02:47.092Z,13.90
2023-04-23T00:05:16.606Z,13.90
2023-04-23T00:07:45.902Z,13.80
2023-04-23T00:10:14.977Z,13.80
2023-04-23T00:12:45.919Z,13.80
2023-04-23T00:15:15.914Z,13.80
2023-04-23T00:17:44.626Z,13.90
2023-04-23T00:20:13.896Z,13.90
2023-04-23T00:22:42.482Z,13.90
2023-04-23T00:25:11.779Z,13.90
2023-04-23T00:27:40.408Z,13.80
2023-04-23T00:30:11.283Z,13.80
2023-04-23T00:32:40.110Z,13.80
2023-04-23T00:35:09.753Z,13.70
2023-04-23T00:37:38.344Z,13.70
2023-04-23T00:40:08.646Z,13.70
2023-04-23T00:42:38.756Z,13.70
2023-04-23T00:45:10.565Z,13.70
2023-04-23T00:47:39.195Z,13.60
2023-04-23T00:50:09.829Z,13.50
2023-04-23T00:52:40.795Z,13.50
2023-04-23T00:55:10.394Z,13.40
2023-04-23T00:57:39.890Z,13.30
2023-04-23T01:00:14.082Z,13.20
2023-04-23T01:02:44.819Z,13.20
2023-04-23T01:05:15.477Z,13.10
2023-04-23T01:07:45.624Z,13.00
2023-04-23T01:10:14.595Z,13.00
2023-04-23T01:12:44.272Z,13.00
2023-04-23T01:15:14.320Z,13.00
2023-04-23T01:17:43.313Z,13.00
2023-04-23T01:20:12.780Z,12.90
2023-04-23T01:22:42.898Z,12.90
2023-04-23T01:25:11.896Z,12.90
2023-04-23T01:27:41.097Z,12.90
2023-04-23T01:30:11.058Z,12.90
2023-04-23T01:32:41.306Z,13.00
2023-04-23T01:35:13.323Z,13.00
2023-04-23T01:37:46.075Z,12.90
2023-04-23T01:40:15.172Z,12.90
2023-04-23T01:42:43.912Z,12.80
2023-04-23T01:45:12.797Z,12.80
2023-04-23T01:47:42.585Z,12.70
2023-04-23T01:50:11.739Z,12.70
2023-04-23T01:52:40.500Z,12.70
2023-04-23T01:55:10.816Z,12.70
2023-04-23T01:57:39.481Z,12.70
2023-04-23T02:00:11.810Z,12.70
2023-04-23T02:02:45.626Z,12.60
2023-04-23T02:05:16.826Z,12.60
2023-04-23T02:07:46.533Z,12.50
2023-04-23T02:10:18.742Z,12.50
2023-04-23T02:12:47.991Z,12.50
2023-04-23T02:15:17.316Z,12.50
2023-04-23T02:17:46.169Z,12.40
2023-04-23T02:20:15.080Z,12.50
2023-04-23T02:22:44.294Z,12.50
2023-04-23T02:25:15.762Z,12.50
2023-04-23T02:27:45.997Z,12.60
2023-04-23T02:30:15.474Z,12.60
2023-04-23T02:32:44.248Z,12.60
2023-04-23T02:35:13.465Z,12.60
2023-04-23T02:37:42.613Z,12.60
2023-04-23T02:40:12.264Z,12.60
2023-04-23T02:42:43.830Z,12.60
2023-04-23T02:45:14.925Z,12.60
2023-04-23T02:47:43.703Z,12.60
2023-04-23T02:50:12.750Z,12.60
2023-04-23T02:52:41.521Z,12.60
2023-04-23T02:55:11.038Z,12.60
2023-04-23T02:57:39.846Z,12.60
2023-04-23T03:00:09.842Z,12.60
2023-04-23T03:02:44.485Z,12.60
2023-04-23T03:05:13.559Z,12.60
2023-04-23T03:07:43.419Z,12.60
2023-04-23T03:10:12.692Z,12.60
2023-04-23T03:12:41.388Z,12.60
2023-04-23T03:15:11.765Z,12.60
2023-04-23T03:17:40.979Z,12.60
2023-04-23T03:20:12.795Z,12.60
2023-04-23T03:22:42.363Z,12.70
2023-04-23T03:25:11.627Z,12.70
2023-04-23T03:27:41.035Z,12.70
2023-04-23T03:30:11.091Z,12.70
2023-04-23T03:32:40.327Z,12.70
2023-04-23T03:35:10.485Z,12.80
2023-04-23T03:37:44.093Z,12.90
2023-04-23T03:40:13.616Z,12.90
2023-04-23T03:42:43.404Z,12.90
2023-04-23T03:45:16.832Z,12.90
2023-04-23T03:47:46.479Z,12.90
2023-04-23T03:50:17.597Z,13.00
2023-04-23T03:52:51.244Z,13.00
2023-04-23T03:55:39.890Z,13.10
2023-04-23T03:58:09.526Z,13.00
2023-04-23T04:00:45.047Z,13.10
2023-04-23T04:03:13.683Z,13.00
2023-04-23T04:05:42.396Z,13.00
2023-04-23T04:08:12.628Z,12.90
2023-04-23T04:10:42.086Z,12.90
2023-04-23T04:13:11.159Z,12.90
2023-04-23T04:15:39.719Z,12.90
2023-04-23T04:18:08.413Z,12.90
2023-04-23T04:20:37.012Z,12.80
2023-04-23T04:23:05.689Z,12.90
2023-04-23T04:25:40.046Z,12.80
2023-04-23T04:28:09.567Z,12.80
2023-04-23T04:30:38.414Z,12.70
2023-04-23T04:33:07.150Z,12.80
2023-04-23T04:35:35.758Z,12.80
2023-04-23T04:38:04.425Z,12.80
2023-04-23T04:40:33.911Z,12.80
2023-04-23T04:43:05.400Z,12.80
2023-04-23T04:45:34.217Z,12.90
2023-04-23T04:48:02.964Z,12.90
2023-04-23T04:50:31.867Z,12.90
2023-04-23T04:53:00.626Z,12.90
2023-04-23T04:55:30.127Z,12.90
2023-04-23T04:57:58.759Z,13.00
2023-04-23T05:00:30.709Z,13.00
2023-04-23T05:03:00.077Z,13.00
2023-04-23T05:05:29.652Z,13.10
2023-04-23T05:08:02.198Z,13.10
2023-04-23T05:10:31.461Z,13.10
2023-04-23T05:13:00.876Z,13.20
2023-04-23T05:15:31.473Z,13.20
2023-04-23T05:18:00.213Z,13.30
2023-04-23T05:20:28.874Z,13.30
2023-04-23T05:22:59.575Z,13.30
2023-04-23T05:25:28.425Z,13.40
2023-04-23T05:27:57.260Z,13.40
2023-04-23T05:30:26.031Z,13.50
2023-04-23T05:32:56.157Z,13.50
2023-04-23T05:35:24.976Z,13.60
2023-04-23T05:37:53.648Z,13.60
2023-04-23T05:40:22.500Z,13.70
2023-04-23T05:42:51.133Z,13.70
2023-04-23T05:45:19.832Z,13.70
2023-04-23T05:47:48.535Z,13.70
2023-04-23T05:50:18.930Z,13.80
2023-04-23T05:52:47.714Z,13.70
2023-04-23T05:55:16.926Z,13.70
2023-04-23T05:57:46.394Z,13.70
2023-04-23T06:00:15.595Z,13.70
2023-04-23T06:02:44.482Z,13.70
2023-04-23T06:05:13.493Z,13.70
2023-04-23T06:07:43.768Z,13.70
2023-04-23T06:10:13.389Z,13.80
2023-04-23T06:12:42.503Z,13.80
2023-04-23T06:15:12.104Z,13.90
2023-04-23T06:17:41.280Z,13.90
2023-04-23T06:20:12.069Z,13.90
2023-04-23T06:22:41.421Z,13.90
2023-04-23T06:25:12.074Z,13.90
2023-04-23T06:27:40.969Z,13.90
2023-04-23T06:30:17.212Z,13.90
2023-04-23T06:32:46.677Z,14.00
2023-04-23T06:35:15.513Z,14.10
2023-04-23T06:37:44.196Z,14.10
2023-04-23T06:40:14.528Z,14.10
2023-04-23T06:42:43.267Z,14.20
2023-04-23T06:45:18.663Z,14.20
2023-04-23T06:47:49.352Z,14.20
2023-04-23T06:50:18.262Z,14.30
2023-04-23T06:52:47.070Z,14.30
2023-04-23T06:55:17.206Z,14.40
2023-04-23T06:57:45.958Z,14.50
2023-04-23T07:00:15.181Z,14.70
2023-04-23T07:02:45.039Z,14.80
2023-04-23T07:05:14.020Z,15.00
2023-04-23T07:07:43.555Z,15.10
2023-04-23T07:10:14.456Z,15.30
2023-04-23T07:12:46.712Z,15.40
2023-04-23T07:15:15.573Z,15.50
2023-04-23T07:17:44.285Z,15.60
2023-04-23T07:20:13.110Z,15.70
2023-04-23T07:22:41.809Z,15.60
2023-04-23T07:25:10.992Z,15.50
2023-04-23T07:27:39.668Z,15.50
2023-04-23T07:30:10.850Z,15.40
2023-04-23T07:32:39.538Z,15.50
2023-04-23T07:35:10.517Z,15.60
2023-04-23T07:37:39.194Z,15.80
2023-04-23T07:40:09.259Z,16.00
2023-04-23T07:42:37.757Z,16.10
2023-04-23T07:45:07.599Z,16.20
2023-04-23T07:47:37.705Z,16.10
2023-04-23T07:50:07.418Z,16.20
2023-04-23T07:52:36.174Z,16.20
2023-04-23T07:55:05.151Z,16.30
2023-04-23T07:57:33.938Z,16.30
2023-04-23T08:00:02.687Z,16.30
2023-04-23T08:02:42.125Z,16.40
2023-04-23T08:05:11.607Z,16.30
2023-04-23T08:07:40.636Z,16.10
2023-04-23T08:10:10.291Z,16.00
2023-04-23T08:12:39.002Z,15.80
2023-04-23T08:15:08.445Z,15.50
2023-04-23T08:17:43.038Z,15.40
2023-04-23T08:20:12.628Z,15.20
2023-04-23T08:22:41.400Z,15.30
2023-04-23T08:25:10.999Z,15.40
2023-04-23T08:27:39.794Z,15.40
2023-04-23T08:30:09.685Z,15.60
2023-04-23T08:32:40.574Z,15.80
2023-04-23T08:35:11.287Z,16.00
2023-04-23T08:37:40.412Z,16.20
2023-04-23T08:40:10.312Z,16.40
2023-04-23T08:42:44.057Z,16.60
2023-04-23T08:45:13.625Z,16.90
2023-04-23T08:47:44.523Z,17.30
2023-04-23T08:50:16.712Z,17.70
2023-04-23T08:52:51.617Z,18.10
2023-04-23T08:55:21.833Z,18.40
2023-04-23T08:57:51.623Z,18.80
2023-04-23T09:00:23.319Z,19.10
2023-04-23T09:02:52.277Z,19.10
2023-04-23T09:05:22.578Z,18.80
2023-04-23T09:07:51.164Z,18.50
2023-04-23T09:10:19.890Z,18.30
2023-04-23T09:12:48.602Z,18.30
2023-04-23T09:15:18.269Z,18.30
2023-04-23T09:17:48.326Z,18.30
2023-04-23T09:20:17.780Z,18.30
2023-04-23T09:22:49.585Z,18.40
2023-04-23T09:25:20.445Z,18.50
2023-04-23T09:27:49.636Z,18.40
2023-04-23T09:30:19.055Z,18.40
2023-04-23T09:32:49.669Z,18.40
2023-04-23T09:35:21.076Z,18.60
2023-04-23T09:37:53.499Z,18.70
2023-04-23T09:40:26.404Z,19.00
2023-04-23T09:42:55.148Z,19.30
2023-04-23T09:45:25.892Z,19.60
2023-04-23T09:47:56.478Z,19.80
2023-04-23T09:50:34.566Z,19.90
2023-04-23T09:53:05.062Z,19.80
2023-04-23T09:55:39.136Z,19.70
2023-04-23T09:58:12.888Z,19.50
2023-04-23T10:00:42.315Z,19.40
2023-04-23T10:03:12.443Z,19.10
2023-04-23T10:05:59.794Z,18.80
2023-04-23T10:08:33.185Z,18.70
2023-04-23T10:11:14.144Z,18.60
2023-04-23T10:13:49.521Z,18.70
2023-04-23T10:16:23.041Z,18.90
2023-04-23T10:18:55.639Z,19.00
2023-04-23T10:21:33.938Z,19.20
2023-04-23T10:24:12.305Z,19.50
2023-04-23T10:26:43.914Z,19.80
2023-04-23T10:29:18.518Z,20.00
2023-04-23T10:31:48.603Z,20.10
2023-04-23T10:34:17.525Z,20.30
2023-04-23T10:36:46.320Z,20.30
2023-04-23T10:39:24.034Z,20.50
2023-04-23T10:41:59.115Z,20.90
2023-04-23T10:44:57.367Z,21.30
2023-04-23T10:47:23.012Z,21.90
2023-04-23T10:49:51.861Z,22.40
2023-04-23T10:52:24.390Z,22.70
2023-04-23T10:55:01.021Z,23.00
2023-04-23T10:57:29.686Z,23.10
2023-04-23T10:59:59.091Z,23.20
2023-04-23T11:02:28.269Z,23.20
2023-04-23T11:04:58.356Z,23.30
2023-04-23T11:07:31.312Z,23.50
2023-04-23T11:10:12.155Z,23.60
2023-04-23T11:12:41.690Z,23.60
2023-04-23T11:15:14.760Z,23.70
2023-04-23T11:18:05.616Z,23.80
2023-04-23T11:20:34.509Z,24.00
2023-04-23T11:23:03.228Z,24.00
2023-04-23T11:25:33.467Z,23.90
2023-04-23T11:28:01.932Z,23.80
2023-04-23T11:30:32.169Z,23.60
2023-04-23T11:33:02.318Z,23.40
2023-04-23T11:35:39.715Z,23.10
2023-04-23T11:38:10.333Z,23.00
2023-04-23T11:40:42.913Z,22.90
2023-04-23T11:43:11.516Z,23.00
2023-04-23T11:45:40.037Z,23.30
2023-04-23T11:48:08.702Z,23.40
2023-04-23T11:50:39.118Z,23.50
2023-04-23T11:53:09.014Z,23.70
2023-04-23T11:55:43.940Z,23.80
2023-04-23T11:58:12.655Z,24.10
2023-04-23T12:00:42.446Z,24.40
2023-04-23T12:03:11.852Z,24.50
2023-04-23T12:05:43.671Z,24.50
2023-04-23T12:08:13.437Z,24.40
2023-04-23T12:10:47.759Z,24.20
2023-04-23T12:13:17.413Z,24.10
2023-04-23T12:15:50.545Z,24.00
2023-04-23T12:18:19.917Z,23.90
2023-04-23T12:20:48.652Z,23.90
2023-04-23T12:23:17.389Z,24.00
2023-04-23T12:25:47.523Z,24.10
2023-04-23T12:28:16.194Z,24.20
2023-04-23T12:30:45.879Z,24.10
2023-04-23T12:33:15.138Z,24.10
2023-04-23T12:35:45.320Z,23.90
2023-04-23T12:38:24.717Z,23.90
2023-04-23T12:40:55.873Z,23.80
2023-04-23T12:43:24.887Z,23.70
2023-04-23T12:45:54.210Z,23.50
2023-04-23T12:48:22.762Z,23.30
2023-04-23T12:50:51.504Z,23.20
2023-04-23T12:53:20.758Z,23.20
2023-04-23T12:55:50.315Z,23.20
2023-04-23T12:58:45.510Z,23.30
2023-04-23T13:01:18.647Z,23.30
2023-04-23T13:03:47.317Z,23.20
2023-04-23T13:06:15.868Z,23.20
2023-04-23T13:08:44.499Z,23.30
2023-04-23T13:11:13.526Z,23.40
2023-04-23T13:13:42.220Z,23.60
2023-04-23T13:16:12.997Z,23.50
2023-04-23T13:18:41.583Z,23.50
2023-04-23T13:21:11.538Z,23.70
2023-04-23T13:23:40.178Z,24.00
2023-04-23T13:26:08.939Z,24.20
2023-04-23T13:28:38.034Z,24.30
2023-04-23T13:31:07.491Z,24.40
2023-04-23T13:33:43.595Z,24.10
2023-04-23T13:36:12.257Z,23.80
2023-04-23T13:38:40.922Z,23.60
2023-04-23T13:41:09.535Z,23.40
2023-04-23T13:43:38.478Z,23.40
2023-04-23T13:46:07.935Z,23.50
2023-04-23T13:48:36.628Z,23.40
2023-04-23T13:51:16.945Z,23.20
2023-04-23T13:53:56.550Z,23.10
2023-04-23T13:56:25.547Z,23.00
2023-04-23T13:59:02.297Z,22.90
2023-04-23T14:01:42.075Z,22.90
2023-04-23T14:04:16.725Z,22.70
2023-04-23T14:06:47.558Z,22.70
2023-04-23T14:09:19.368Z,22.60
2023-04-23T14:11:51.340Z,22.70
2023-04-23T14:14:20.314Z,22.70
2023-04-23T14:16:48.933Z,22.70
2023-04-23T14:19:18.387Z,22.60
2023-04-23T14:21:48.938Z,22.80
2023-04-23T14:24:23.617Z,23.00
2023-04-23T14:26:52.325Z,23.30
2023-04-23T14:29:26.568Z,23.20
2023-04-23T14:31:55.443Z,23.10
2023-04-23T14:34:25.998Z,23.00
2023-04-23T14:36:56.255Z,22.90
2023-04-23T14:39:25.918Z,22.80
2023-04-23T14:41:54.627Z,22.90
2023-04-23T14:44:26.608Z,23.00
2023-04-23T14:46:55.665Z,23.10
2023-04-23T14:49:25.223Z,23.00
2023-04-23T14:51:57.837Z,23.00
2023-04-23T14:54:26.715Z,22.90
2023-04-23T14:56:55.334Z,22.70
2023-04-23T14:59:25.329Z,22.40
2023-04-23T15:01:54.341Z,22.20
2023-04-23T15:04:23.350Z,22.10
2023-04-23T15:06:51.979Z,22.00
2023-04-23T15:09:22.167Z,21.90
2023-04-23T15:11:51.095Z,21.80
2023-04-23T15:14:31.597Z,21.90
2023-04-23T15:17:01.076Z,22.10
2023-04-23T15:19:31.223Z,22.30
2023-04-23T15:22:00.120Z,22.40
2023-04-23T15:24:30.354Z,22.50
2023-04-23T15:26:59.836Z,22.60
2023-04-23T15:29:28.608Z,22.60
2023-04-23T15:31:58.623Z,22.60
2023-04-23T15:34:28.037Z,22.50
2023-04-23T15:36:56.917Z,22.50
2023-04-23T15:39:26.403Z,22.40
2023-04-23T15:41:58.340Z,22.30
2023-04-23T15:44:27.300Z,22.20
2023-04-23T15:46:56.320Z,22.10
2023-04-23T15:49:24.967Z,22.10
2023-04-23T15:51:54.180Z,22.00
2023-04-23T15:54:23.469Z,21.80
2023-04-23T15:56:52.322Z,21.60
2023-04-23T15:59:23.791Z,21.50
2023-04-23T16:01:52.758Z,21.40
2023-04-23T16:04:50.965Z,21.40
2023-04-23T16:07:19.911Z,21.40
2023-04-23T16:09:49.092Z,21.50
2023-04-23T16:12:17.915Z,21.40
2023-04-23T16:14:48.127Z,21.40
2023-04-23T16:17:17.064Z,21.40
2023-04-23T16:19:46.578Z,21.30
2023-04-23T16:22:17.601Z,21.20
2023-04-23T16:24:46.451Z,21.10
2023-04-23T16:27:15.265Z,21.00
2023-04-23T16:29:52.529Z,21.00
2023-04-23T16:32:46.876Z,21.00
2023-04-23T16:35:15.643Z,21.00
2023-04-23T16:38:11.480Z,21.00
2023-04-23T16:41:05.240Z,21.00
2023-04-23T16:43:34.196Z,21.00
2023-04-23T16:46:04.346Z,20.90
2023-04-23T16:48:33.144Z,20.90
2023-04-23T16:51:01.923Z,20.90
2023-04-23T16:53:30.733Z,20.90
2023-04-23T16:56:00.127Z,20.80
2023-04-23T16:58:35.427Z,20.70
2023-04-23T17:01:05.577Z,20.60
2023-04-23T17:03:36.625Z,20.50
2023-04-23T17:06:12.222Z,20.40
2023-04-23T17:08:41.264Z,20.40
2023-04-23T17:11:14.101Z,20.30
2023-04-23T17:13:44.434Z,20.30
2023-04-23T17:17:04.472Z,20.20
2023-04-23T17:19:35.197Z,20.10
2023-04-23T17:22:03.836Z,20.00
2023-04-23T17:24:33.251Z,20.00
2023-04-23T17:27:08.320Z,19.80
2023-04-23T17:29:37.050Z,19.60
2023-04-23T17:32:06.064Z,19.30
2023-04-23T17:39:26.865Z,18.70
2023-04-23T17:42:02.188Z,18.20
2023-04-23T17:44:30.982Z,18.00
2023-04-23T17:46:59.796Z,17.80
2023-04-23T17:49:28.504Z,17.70
2023-04-23T17:51:57.672Z,17.50
2023-04-23T17:54:27.968Z,17.30
2023-04-23T17:56:56.706Z,17.10
2023-04-23T17:59:25.459Z,16.90
2023-04-23T18:01:54.484Z,16.70
2023-04-23T18:05:13.461Z,16.50
2023-04-23T18:07:47.761Z,16.30
2023-04-23T18:10:19.377Z,16.20
2023-04-23T18:12:50.524Z,15.90
2023-04-23T18:15:23.199Z,15.90
2023-04-23T18:17:54.665Z,15.70
2023-04-23T18:20:25.137Z,15.60
2023-04-23T18:22:54.921Z,15.50
2023-04-23T18:25:26.882Z,15.30
2023-04-23T18:27:55.487Z,15.20
2023-04-23T18:30:25.588Z,15.20
2023-04-23T18:33:03.895Z,15.10
2023-04-23T18:35:32.540Z,15.00
2023-04-23T18:38:06.960Z,15.00
2023-04-23T18:40:36.983Z,15.00
2023-04-23T18:43:05.538Z,15.00
2023-04-23T18:45:34.124Z,15.00
2023-04-23T18:48:11.467Z,15.00
2023-04-23T18:50:44.739Z,15.10
2023-04-23T18:53:13.307Z,15.10
2023-04-23T18:55:43.433Z,15.10
2023-04-23T18:58:11.946Z,15.10
2023-04-23T19:00:40.703Z,14.90
2023-04-23T19:03:23.557Z,14.60
2023-04-23T19:05:54.322Z,14.40
2023-04-23T19:08:50.227Z,14.10
2023-04-23T19:11:20.447Z,13.90
2023-04-23T19:13:49.066Z,13.80
2023-04-23T19:16:18.379Z,13.60
2023-04-23T19:19:16.434Z,13.50
2023-04-23T19:21:45.062Z,13.30
2023-04-23T19:24:13.745Z,13.10
2023-04-23T19:26:45.812Z,12.90
2023-04-23T19:29:14.556Z,12.80
2023-04-23T19:31:43.393Z,12.60
2023-04-23T19:34:38.548Z,12.50
2023-04-23T19:37:07.165Z,12.30
2023-04-23T19:39:35.819Z,12.20
2023-04-23T19:42:07.209Z,12.20
2023-04-23T19:44:35.956Z,12.00
2023-04-23T19:47:04.688Z,12.00
2023-04-23T19:49:33.344Z,11.90
2023-04-23T19:52:03.504Z,11.80
2023-04-23T19:58:40.780Z,11.80
2023-04-23T20:01:14.647Z,11.70
2023-04-23T20:03:47.793Z,11.70
2023-04-23T20:06:16.414Z,11.70
2023-04-23T20:09:04.759Z,11.70
2023-04-23T20:11:33.603Z,11.70
2023-04-23T20:14:04.091Z,11.60
2023-04-23T20:16:32.840Z,11.60
2023-04-23T20:19:01.945Z,11.50
2023-04-23T20:21:30.468Z,11.50
2023-04-23T20:23:59.276Z,11.40
2023-04-23T20:26:28.212Z,11.40
2023-04-23T20:28:57.536Z,11.40
2023-04-23T20:31:27.860Z,11.40
2023-04-23T20:33:57.108Z,11.30
2023-04-23T20:36:28.824Z,11.30
2023-04-23T20:38:58.212Z,11.30
2023-04-23T20:41:27.370Z,11.20
2023-04-23T20:43:57.135Z,11.20
2023-04-23T20:46:30.181Z,11.20
2023-04-23T20:49:00.936Z,11.20
2023-04-23T20:51:29.857Z,11.10
2023-04-23T20:53:58.662Z,11.10
2023-04-23T20:56:27.448Z,11.10
2023-04-23T20:58:57.482Z,11.10
2023-04-23T21:01:28.108Z,11.10
2023-04-23T21:03:56.899Z,11.10
2023-04-23T21:06:25.628Z,11.10
2023-04-23T21:08:54.131Z,11.00
2023-04-23T21:11:24.289Z,11.00
2023-04-23T21:13:53.024Z,10.90
2023-04-23T21:16:21.669Z,10.80
2023-04-23T21:18:51.856Z,10.80
2023-04-23T21:21:25.709Z,10.70
2023-04-23T21:23:54.346Z,10.70
2023-04-23T21:26:23.322Z,10.60
2023-04-23T21:28:51.932Z,10.60
2023-04-23T21:31:30.891Z,10.50
2023-04-23T21:34:00.981Z,10.50
2023-04-23T21:36:29.718Z,10.50
2023-04-23T21:38:58.204Z,10.50
2023-04-23T21:41:26.837Z,10.50
2023-04-23T21:43:55.560Z,10.50
2023-04-23T21:46:25.181Z,10.50
2023-04-23T21:48:54.100Z,10.50
2023-04-23T21:51:25.133Z,10.50
2023-04-23T21:53:53.734Z,10.60
2023-04-23T21:56:22.812Z,10.60
2023-04-23T21:58:51.421Z,10.60
2023-04-23T22:01:19.915Z,10.60
2023-04-23T22:03:48.616Z,10.70
2023-04-23T22:06:17.568Z,10.70
2023-04-23T22:08:47.987Z,10.80
2023-04-23T22:11:17.492Z,10.80
2023-04-23T22:13:46.326Z,10.90
2023-04-23T22:16:27.511Z,10.90
2023-04-23T22:18:57.954Z,10.90
2023-04-23T22:21:26.711Z,11.00
2023-04-23T22:23:57.249Z,11.00
2023-04-23T22:26:25.929Z,11.00
2023-04-23T22:28:54.670Z,11.00
2023-04-23T22:31:23.424Z,11.00
2023-04-23T22:33:52.212Z,11.00
2023-04-23T22:36:20.870Z,11.00
2023-04-23T22:38:49.444Z,11.10
2023-04-23T22:41:19.550Z,11.10
2023-04-23T22:43:48.210Z,11.10
2023-04-23T22:46:17.032Z,11.10
2023-04-23T22:48:47.356Z,11.10
2023-04-23T22:51:16.172Z,11.20
2023-04-23T22:53:44.730Z,11.20
2023-04-23T22:56:13.437Z,11.20
2023-04-23T22:58:43.630Z,11.20
2023-04-23T23:01:12.338Z,11.20
2023-04-23T23:03:40.992Z,11.20
2023-04-23T23:06:09.662Z,11.20
2023-04-23T23:08:38.236Z,11.20
2023-04-23T23:11:07.086Z,11.10
2023-04-23T23:13:35.748Z,11.20
2023-04-23T23:16:06.330Z,11.10
2023-04-23T23:18:34.906Z,11.10
2023-04-23T23:21:03.546Z,11.10
2023-04-23T23:23:32.420Z,11.00
2023-04-23T23:26:01.067Z,11.00
2023-04-23T23:28:29.791Z,11.00
2023-04-23T23:30:58.417Z,11.00
2023-04-23T23:33:29.008Z,11.00
2023-04-23T23:35:58.598Z,11.00
2023-04-23T23:38:27.363Z,10.90
2023-04-23T23:40:56.089Z,10.90
2023-04-23T23:43:24.774Z,10.90
2023-04-23T23:45:53.460Z,10.80
2023-04-23T23:48:22.138Z,10.80
2023-04-23T23:50:52.339Z,10.80
2023-04-23T23:53:20.996Z,10.80
2023-04-23T23:55:50.021Z,10.70
2023-04-23T23:58:18.689Z,10.70
